Time;durP1;ratioP1;P1;durP2;ratioP2;P2;SDS_P1;SDS_P2;PMS_P1;PMS_P2;Temp;Humidity;BMP_temperature;BMP_pressure;BME280_temperature;BME280_humidity;BME280_pressure;Samples;Min_cycle;Max_cycle;Signal;HPM_P1;HPM_P2
2020/12/19 00:01:12;;;;;;;;;;;;;;;-0.52;100.00;101585.44;5115386;28;20454;-76
2020/12/19 00:03:37;;;;;;;;;;;;;;;-0.60;100.00;101582.91;5115175;28;19923;-76
2020/12/19 00:06:06;;;;;;;;;;;;;;;-0.58;100.00;101588.22;5115135;28;19930;-76
2020/12/19 00:08:32;;;;;;;;;;;;;;;-0.58;100.00;101582.88;5114891;28;20006;-76
2020/12/19 00:10:58;;;;;;;;;;;;;;;-0.60;100.00;101580.25;5115365;28;20392;-75
2020/12/19 00:13:24;;;;;;;;;;;;;;;-0.59;100.00;101575.78;5114995;28;20393;-76
2020/12/19 00:15:50;;;;;;;;;;;;;;;-0.57;100.00;101569.50;5115108;28;19931;-76
2020/12/19 00:18:16;;;;;;;;;;;;;;;-0.55;100.00;101574.81;5113791;28;19924;-76
2020/12/19 00:20:42;;;;;;;;;;;;;;;-0.53;100.00;101570.34;5115048;28;19924;-75
2020/12/19 00:23:07;;;;;;;;;;;;;;;-0.54;100.00;101568.56;5115234;28;19930;-76
2020/12/19 00:25:33;;;;;;;;;;;;;;;-0.48;100.00;101570.22;5114674;28;19931;-76
2020/12/19 00:28:00;;;;;;;;;;;;;;;-0.47;100.00;101562.19;5114466;28;20309;-76
2020/12/19 00:30:25;;;;;;;;;;;;;;;-0.40;100.00;101560.25;5114821;28;20022;-76
2020/12/19 00:32:51;;;;;;;;;;;;;;;-0.38;100.00;101559.31;5114906;28;19924;-76
2020/12/19 00:35:17;;;;;;;;;;;;;;;-0.34;100.00;101549.44;5114409;28;19924;-75
2020/12/19 00:37:43;;;;;;;;;;;;;;;-0.37;100.00;101552.19;5114715;28;20411;-75
2020/12/19 00:40:09;;;;;;;;;;;;;;;-0.40;100.00;101553.16;5114793;28;20016;-76
2020/12/19 00:42:36;;;;;;;;;;;;;;;-0.42;100.00;101552.28;5114553;28;20031;-76
2020/12/19 00:45:02;;;;;;;;;;;;;;;-0.40;100.00;101549.56;5114150;28;19924;-76
2020/12/19 00:47:28;;;;;;;;;;;;;;;-0.38;100.00;101543.28;5114258;28;20030;-76
2020/12/19 00:49:54;;;;;;;;;;;;;;;-0.41;100.00;101542.50;5114472;28;19928;-76
2020/12/19 00:52:20;;;;;;;;;;;;;;;-0.38;100.00;101537.97;5114480;28;19976;-76
2020/12/19 00:54:46;;;;;;;;;;;;;;;-0.38;100.00;101545.09;5114217;28;19931;-76
2020/12/19 00:57:11;;;;;;;;;;;;;;;-0.41;100.00;101538.03;5114580;28;19931;-76
2020/12/19 00:59:37;;;;;;;;;;;;;;;-0.44;100.00;101538.13;5114312;28;19930;-76
2020/12/19 01:02:04;;;;;;;;;;;;;;;-0.43;100.00;101547.00;5112699;28;19931;-76
2020/12/19 01:04:29;;;;;;;;;;;;;;;-0.42;100.00;101543.41;5114149;28;20026;-76
2020/12/19 01:06:55;;;;;;;;;;;;;;;-0.44;100.00;101542.56;5114100;28;19927;-76
2020/12/19 01:09:22;;;;;;;;;;;;;;;-0.45;100.00;101546.16;5114155;28;20286;-76
2020/12/19 01:11:47;;;;;;;;;;;;;;;-0.40;100.00;101544.25;5114340;28;20334;-76
2020/12/19 01:14:13;;;;;;;;;;;;;;;-0.43;100.00;101533.66;5114041;28;19931;-76
2020/12/19 01:16:39;;;;;;;;;;;;;;;-0.41;100.00;101546.03;5113749;28;19928;-75
2020/12/19 01:19:06;;;;;;;;;;;;;;;-0.44;100.00;101542.56;5113922;28;19931;-75
2020/12/19 01:21:32;;;;;;;;;;;;;;;-0.51;100.00;101537.38;5113934;28;20028;-75
2020/12/19 01:23:58;;;;;;;;;;;;;;;-0.52;100.00;101529.41;5113947;28;20026;-75
2020/12/19 01:26:24;;;;;;;;;;;;;;;-0.52;100.00;101537.41;5113771;28;19960;-75
2020/12/19 01:28:50;;;;;;;;;;;;;;;-0.59;100.00;101534.00;5114147;28;20343;-75
2020/12/19 01:31:17;;;;;;;;;;;;;;;-0.54;100.00;101541.91;5115343;28;19969;-75
2020/12/19 01:33:43;;;;;;;;;;;;;;;-0.51;100.00;101544.47;5113694;28;20402;-75
2020/12/19 01:36:10;;;;;;;;;;;;;;;-0.48;100.00;101539.09;5113288;28;20442;-74
2020/12/19 01:38:37;;;;;;;;;;;;;;;-0.41;100.00;101540.72;5113575;28;20038;-75
2020/12/19 01:41:02;;;;;;;;;;;;;;;-0.40;100.00;101542.47;5113364;28;20026;-75
2020/12/19 01:43:41;;;;;;;;;;;;;;;-0.34;100.00;101538.78;5112116;28;19924;-75
2020/12/19 01:46:07;;;;;;;;;;;;;;;-0.42;100.00;101538.94;5113268;28;19974;-75
2020/12/19 01:48:33;;;;;;;;;;;;;;;-0.48;100.00;101538.19;5113326;28;19923;-75
2020/12/19 01:50:59;;;;;;;;;;;;;;;-0.49;100.00;101534.66;5113544;28;19924;-75
2020/12/19 01:53:26;;;;;;;;;;;;;;;-0.50;100.00;101530.25;5111993;28;19923;-75
2020/12/19 01:55:52;;;;;;;;;;;;;;;-0.58;100.00;101525.06;5112977;28;20399;-75
2020/12/19 01:58:18;;;;;;;;;;;;;;;-0.60;100.00;101528.69;5113087;28;20026;-75
2020/12/19 02:00:44;;;;;;;;;;;;;;;-0.64;100.00;101530.56;5111819;28;20314;-75
2020/12/19 02:03:10;;;;;;;;;;;;;;;-0.69;100.00;101533.31;5111945;28;20402;-75
2020/12/19 02:05:37;;;;;;;;;;;;;;;-0.71;100.00;101524.47;5112921;28;19932;-75
2020/12/19 02:08:03;;;;;;;;;;;;;;;-0.74;100.00;101516.53;5112917;28;20065;-75
2020/12/19 02:10:32;;;;;;;;;;;;;;;-0.76;100.00;101510.38;5111791;28;19959;-75
2020/12/19 02:12:58;;;;;;;;;;;;;;;-0.78;100.00;101506.84;5112646;28;20391;-75
2020/12/19 02:15:24;;;;;;;;;;;;;;;-0.82;100.00;101498.94;5112617;28;19930;-75
2020/12/19 02:17:50;;;;;;;;;;;;;;;-0.86;100.00;101504.31;5112694;28;19923;-75
2020/12/19 02:20:15;;;;;;;;;;;;;;;-0.83;100.00;101500.72;5112920;28;19924;-74
2020/12/19 02:22:41;;;;;;;;;;;;;;;-0.82;100.00;101498.94;5112759;28;20312;-75
2020/12/19 02:25:08;;;;;;;;;;;;;;;-0.80;100.00;101491.78;5112760;28;19924;-75
2020/12/19 02:27:33;;;;;;;;;;;;;;;-0.86;100.00;101488.34;5112319;28;20049;-75
2020/12/19 02:29:59;;;;;;;;;;;;;;;-0.87;100.00;101485.72;5112060;28;19939;-75
2020/12/19 02:32:25;;;;;;;;;;;;;;;-0.88;100.00;101475.97;5112328;28;19927;-75
2020/12/19 02:34:51;;;;;;;;;;;;;;;-0.88;100.00;101473.31;5112499;28;19924;-75
2020/12/19 02:37:16;;;;;;;;;;;;;;;-0.89;100.00;101477.75;5112349;28;20427;-75
2020/12/19 02:39:42;;;;;;;;;;;;;;;-0.90;100.00;101475.97;5112565;28;19935;-74
2020/12/19 02:42:09;;;;;;;;;;;;;;;-0.88;100.00;101467.97;5112468;28;19924;-75
2020/12/19 02:44:35;;;;;;;;;;;;;;;-0.84;100.00;101472.34;5112147;28;19927;-75
2020/12/19 02:47:00;;;;;;;;;;;;;;;-0.75;100.00;101469.47;5112343;28;19966;-75
2020/12/19 02:49:26;;;;;;;;;;;;;;;-0.70;100.00;101466.69;5110749;28;19977;-74
2020/12/19 02:51:52;;;;;;;;;;;;;;;-0.68;100.00;101472.88;5112332;28;19924;-74
2020/12/19 02:54:18;;;;;;;;;;;;;;;-0.64;100.00;101453.22;5112244;28;19930;-74
2020/12/19 02:56:44;;;;;;;;;;;;;;;-0.46;100.00;101451.91;5112070;28;19924;-74
2020/12/19 02:59:10;;;;;;;;;;;;;;;-0.40;100.00;101446.44;5112322;28;19924;-74
2020/12/19 03:01:36;;;;;;;;;;;;;;;-0.31;100.00;101449.78;5112009;28;20026;-74
2020/12/19 03:04:02;;;;;;;;;;;;;;;-0.26;100.00;101440.75;5112065;28;19924;-74
2020/12/19 03:06:28;;;;;;;;;;;;;;;-0.30;100.00;101452.41;5112041;28;19924;-74
2020/12/19 03:08:53;;;;;;;;;;;;;;;-0.35;100.00;101444.53;5111711;28;19947;-75
2020/12/19 03:11:19;;;;;;;;;;;;;;;-0.26;100.00;101446.06;5112117;28;19954;-74
2020/12/19 03:13:45;;;;;;;;;;;;;;;-0.28;100.00;101447.91;5112010;28;19923;-74
2020/12/19 03:16:12;;;;;;;;;;;;;;;-0.32;100.00;101445.34;5111896;28;19924;-75
2020/12/19 03:18:37;;;;;;;;;;;;;;;-0.32;100.00;101440.91;5111877;28;20010;-75
2020/12/19 03:21:03;;;;;;;;;;;;;;;-0.37;100.00;101434.81;5111935;28;19931;-74
2020/12/19 03:23:29;;;;;;;;;;;;;;;-0.37;100.00;101424.13;5111911;28;19931;-74
2020/12/19 03:25:55;;;;;;;;;;;;;;;-0.34;100.00;101424.91;5115061;28;20289;-74
2020/12/19 03:28:21;;;;;;;;;;;;;;;-0.26;100.00;101430.06;5115887;28;19955;-74
2020/12/19 03:30:46;;;;;;;;;;;;;;;-0.17;100.00;101431.63;5116201;28;20270;-74
2020/12/19 03:33:13;;;;;;;;;;;;;;;-0.17;100.00;101432.50;5116062;28;19924;-76
2020/12/19 03:35:40;;;;;;;;;;;;;;;-0.24;100.00;101430.91;5114580;28;19963;-76
2020/12/19 03:38:06;;;;;;;;;;;;;;;-0.30;100.00;101432.88;5115695;28;19924;-76
2020/12/19 03:40:32;;;;;;;;;;;;;;;-0.37;100.00;101432.13;5115903;28;20064;-76
2020/12/19 03:42:57;;;;;;;;;;;;;;;-0.41;100.00;101431.31;5114539;28;19924;-76
2020/12/19 03:45:23;;;;;;;;;;;;;;;-0.46;100.00;101427.03;5115485;28;19923;-74
2020/12/19 03:47:49;;;;;;;;;;;;;;;-0.46;100.00;101427.03;5115721;28;19924;-73
2020/12/19 03:50:16;;;;;;;;;;;;;;;-0.45;100.00;101424.31;5115932;28;19928;-76
2020/12/19 03:52:41;;;;;;;;;;;;;;;-0.42;100.00;101428.69;5115942;28;20396;-76
2020/12/19 03:55:07;;;;;;;;;;;;;;;-0.51;100.00;101428.00;5115533;28;19931;-76
2020/12/19 03:57:33;;;;;;;;;;;;;;;-0.54;100.00;101428.06;5114099;28;20296;-76
2020/12/19 03:59:59;;;;;;;;;;;;;;;-0.59;100.00;101421.09;5115261;28;19930;-77
2020/12/19 04:02:24;;;;;;;;;;;;;;;-0.52;100.00;101428.06;5115239;28;20347;-76
2020/12/19 04:04:50;;;;;;;;;;;;;;;-0.53;100.00;101426.28;5115558;28;19931;-76
2020/12/19 04:07:17;;;;;;;;;;;;;;;-0.47;100.00;101406.59;5115151;28;19927;-74
2020/12/19 04:09:42;;;;;;;;;;;;;;;-0.47;100.00;101419.94;5115380;28;20346;-77
2020/12/19 04:12:08;;;;;;;;;;;;;;;-0.53;100.00;101413.81;5115321;28;19924;-76
2020/12/19 04:14:40;;;;;;;;;;;;;;;-0.54;100.00;101416.53;5115070;28;20022;-77
2020/12/19 04:17:06;;;;;;;;;;;;;;;-0.55;100.00;101414.78;5114914;28;19923;-76
2020/12/19 04:19:33;;;;;;;;;;;;;;;-0.61;100.00;101413.13;5114970;28;19924;-76
2020/12/19 04:21:58;;;;;;;;;;;;;;;-0.69;100.00;101412.44;5114896;28;19978;-76
2020/12/19 04:24:25;;;;;;;;;;;;;;;-0.76;100.00;101418.81;5113686;28;20270;-76
2020/12/19 04:26:51;;;;;;;;;;;;;;;-0.86;100.00;101418.16;5114565;28;19924;-76
2020/12/19 04:29:17;;;;;;;;;;;;;;;-0.92;100.00;101426.28;5114929;28;20353;-76
2020/12/19 04:31:43;;;;;;;;;;;;;;;-1.03;100.00;101421.19;5114880;28;20542;-76
2020/12/19 04:34:09;;;;;;;;;;;;;;;-1.11;100.00;101418.72;5114769;28;20428;-76
2020/12/19 04:36:34;;;;;;;;;;;;;;;-1.17;100.00;101418.84;5113817;28;19977;-76
2020/12/19 04:39:00;;;;;;;;;;;;;;;-1.20;100.00;101425.09;5120698;28;19924;-76
2020/12/19 04:41:27;;;;;;;;;;;;;;;-1.23;100.00;101425.19;5114459;28;19969;-76
2020/12/19 04:43:53;;;;;;;;;;;;;;;-1.25;100.00;101431.44;5113419;28;19923;-76
2020/12/19 04:46:21;;;;;;;;;;;;;;;-1.21;100.00;101434.00;5114563;28;20018;-76
2020/12/19 04:48:47;;;;;;;;;;;;;;;-1.21;100.00;101434.00;5114815;28;20357;-76
2020/12/19 04:51:14;;;;;;;;;;;;;;;-1.17;100.00;101436.63;5114517;28;20422;-76
2020/12/19 04:53:41;;;;;;;;;;;;;;;-1.17;100.00;101429.50;5114408;28;19931;-76
2020/12/19 04:56:07;;;;;;;;;;;;;;;-1.19;100.00;101431.28;5114494;28;20357;-76
2020/12/19 04:58:34;;;;;;;;;;;;;;;-1.16;100.00;101433.03;5114169;28;19985;-76
2020/12/19 05:01:00;;;;;;;;;;;;;;;-1.19;100.00;101428.63;5114459;28;20018;-76
2020/12/19 05:03:25;;;;;;;;;;;;;;;-1.22;100.00;101426.91;5114312;28;20001;-75
2020/12/19 05:05:51;;;;;;;;;;;;;;;-1.29;100.00;101435.09;5114388;28;20346;-75
2020/12/19 05:08:17;;;;;;;;;;;;;;;-1.29;100.00;101438.63;5112832;28;19931;-75
2020/12/19 05:10:43;;;;;;;;;;;;;;;-1.35;100.00;101428.97;5114361;28;20308;-76
2020/12/19 05:13:09;;;;;;;;;;;;;;;-1.39;100.00;101429.03;5114280;28;19924;-76
2020/12/19 05:15:36;;;;;;;;;;;;;;;-1.28;100.00;101420.81;5109352;28;19932;-76
2020/12/19 05:18:01;;;;;;;;;;;;;;;-1.28;100.00;101421.72;5093192;28;19988;-76
2020/12/19 05:20:28;;;;;;;;;;;;;;;-1.25;100.00;101426.97;5093699;28;19932;-76
2020/12/19 05:22:54;;;;;;;;;;;;;;;-1.24;100.00;101426.09;5110651;28;19956;-76
2020/12/19 05:25:21;;;;;;;;;;;;;;;-1.21;100.00;101430.47;5096085;28;20152;-76
2020/12/19 05:27:47;;;;;;;;;;;;;;;-1.27;100.00;101423.50;5095952;28;20380;-76
2020/12/19 05:30:13;;;;;;;;;;;;;;;-1.21;100.00;101423.34;5113962;28;19982;-76
2020/12/19 05:32:43;;;;;;;;;;;;;;;-1.20;100.00;101424.25;5111179;28;20015;-76
2020/12/19 05:35:09;;;;;;;;;;;;;;;-1.19;100.00;101426.88;5093053;28;20014;-76
2020/12/19 05:37:35;;;;;;;;;;;;;;;-1.16;100.00;101427.69;5093091;28;19970;-75
2020/12/19 05:40:06;;;;;;;;;;;;;;;-1.12;100.00;101426.72;5093790;28;19935;-75
2020/12/19 05:42:32;;;;;;;;;;;;;;;-1.09;100.00;101424.00;5093117;28;19924;-75
2020/12/19 05:44:58;;;;;;;;;;;;;;;-1.08;100.00;101426.63;5093152;28;19924;-76
2020/12/19 05:47:24;;;;;;;;;;;;;;;-1.06;100.00;101431.91;5092033;28;19932;-76
2020/12/19 05:49:50;;;;;;;;;;;;;;;-1.06;100.00;101431.91;5092521;28;19924;-76
2020/12/19 05:52:17;;;;;;;;;;;;;;;-1.09;100.00;101426.66;5092614;28;20006;-76
2020/12/19 05:54:44;;;;;;;;;;;;;;;-1.11;100.00;101428.47;5092029;28;20094;-76
2020/12/19 05:57:13;;;;;;;;;;;;;;;-1.07;100.00;101424.84;5092861;28;19924;-76
2020/12/19 05:59:38;;;;;;;;;;;;;;;-1.06;100.00;101421.25;5092643;28;20013;-76
2020/12/19 06:02:05;;;;;;;;;;;;;;;-1.05;100.00;101409.69;5092721;28;19967;-76
2020/12/19 06:04:31;;;;;;;;;;;;;;;-1.04;100.00;101417.66;5092371;28;19930;-76
2020/12/19 06:06:58;;;;;;;;;;;;;;;-0.98;100.00;101408.63;5092597;28;20439;-77
2020/12/19 06:09:24;;;;;;;;;;;;;;;-1.00;100.00;101410.47;5092137;28;20007;-77
2020/12/19 06:11:53;;;;;;;;;;;;;;;-1.01;100.00;101409.59;5092461;28;19924;-77
2020/12/19 06:14:20;;;;;;;;;;;;;;;-0.99;100.00;101412.22;5092421;28;20019;-77
2020/12/19 06:16:48;;;;;;;;;;;;;;;-1.02;100.00;101418.50;5092296;28;19955;-76
2020/12/19 06:19:16;;;;;;;;;;;;;;;-0.99;100.00;101411.34;5090721;28;20478;-77
2020/12/19 06:21:47;;;;;;;;;;;;;;;-0.98;100.00;101413.09;5091837;28;19943;-76
2020/12/19 06:24:37;;;;;;;;;;;;;;;-0.98;100.00;101411.31;5092370;28;20022;-76
2020/12/19 06:27:03;;;;;;;;;;;;;;;-0.98;100.00;101413.97;5093910;28;20015;-76
2020/12/19 06:29:35;;;;;;;;;;;;;;;-0.97;100.00;101410.41;5100998;28;19931;-76
2020/12/19 06:32:00;;;;;;;;;;;;;;;-0.97;100.00;101405.06;5092239;28;19928;-77
2020/12/19 06:34:26;;;;;;;;;;;;;;;-0.94;100.00;101401.47;5111327;28;19924;-76
2020/12/19 06:36:55;;;;;;;;;;;;;;;-0.96;100.00;101409.50;5112009;28;19931;-76
2020/12/19 06:39:22;;;;;;;;;;;;;;;-0.97;100.00;101405.06;5093158;28;20065;-76
2020/12/19 06:41:49;;;;;;;;;;;;;;;-0.97;100.00;101405.06;5091781;28;20513;-76
2020/12/19 06:44:16;;;;;;;;;;;;;;;-0.98;100.00;101400.66;5109459;28;19923;-76
2020/12/19 06:46:42;;;;;;;;;;;;;;;-1.01;100.00;101403.38;5108874;28;20022;-76
2020/12/19 06:49:41;;;;;;;;;;;;;;;-1.08;100.00;101401.75;5095753;28;19964;-77
2020/12/19 06:52:08;;;;;;;;;;;;;;;-1.13;100.00;101411.66;5109349;28;19924;-77
2020/12/19 06:54:35;;;;;;;;;;;;;;;-1.24;100.00;101410.09;5110609;28;19951;-76
2020/12/19 06:57:02;;;;;;;;;;;;;;;-1.23;100.00;101414.53;5111863;28;19969;-76
2020/12/19 06:59:29;;;;;;;;;;;;;;;-1.25;100.00;101411.00;5099858;28;20481;-76
2020/12/19 07:02:10;;;;;;;;;;;;;;;-1.24;100.00;101402.09;5093730;28;20388;-77
2020/12/19 07:04:36;;;;;;;;;;;;;;;-1.21;100.00;101407.34;5099746;28;20060;-77
2020/12/19 07:07:02;;;;;;;;;;;;;;;-1.23;100.00;101417.19;5091698;28;20020;-76
2020/12/19 07:09:29;;;;;;;;;;;;;;;-1.24;100.00;101418.09;5096893;28;20027;-76
2020/12/19 07:11:55;;;;;;;;;;;;;;;-1.19;100.00;101415.31;5110505;28;19924;-76
2020/12/19 07:14:21;;;;;;;;;;;;;;;-1.21;100.00;101423.34;5111903;28;20022;-76
2020/12/19 07:16:48;;;;;;;;;;;;;;;-1.22;100.00;101424.25;5109085;28;19997;-77
2020/12/19 07:19:14;;;;;;;;;;;;;;;-1.18;100.00;101419.72;5091644;28;19924;-76
2020/12/19 07:21:40;;;;;;;;;;;;;;;-1.24;100.00;101410.09;5093362;28;20030;-76
2020/12/19 07:24:06;;;;;;;;;;;;;;;-1.13;100.00;101412.53;5111834;28;20027;-76
2020/12/19 07:26:31;;;;;;;;;;;;;;;-1.14;100.00;101413.44;5092914;28;20297;-77
2020/12/19 07:28:58;;;;;;;;;;;;;;;-1.12;100.00;101419.63;5092647;28;20412;-77
2020/12/19 07:31:24;;;;;;;;;;;;;;;-1.09;100.00;101421.34;5095163;28;19946;-76
2020/12/19 07:33:50;;;;;;;;;;;;;;;-1.02;100.00;101423.84;5100091;28;20412;-77
2020/12/19 07:36:17;;;;;;;;;;;;;;;-0.98;100.00;101413.09;5100054;28;19928;-76
2020/12/19 07:38:43;;;;;;;;;;;;;;;-0.96;100.00;101409.50;5111750;28;19923;-75
2020/12/19 07:41:09;;;;;;;;;;;;;;;-0.87;100.00;101414.63;5103103;28;20026;-75
2020/12/19 07:43:35;;;;;;;;;;;;;;;-0.81;100.00;101416.25;5091113;28;20436;-75
2020/12/19 07:46:01;;;;;;;;;;;;;;;-0.69;100.00;101412.44;5097713;28;19924;-74
2020/12/19 07:48:27;;;;;;;;;;;;;;;-0.62;100.00;101411.38;5111732;28;20011;-75
2020/12/19 07:50:53;;;;;;;;;;;;;;;-0.55;100.00;101410.34;5097517;28;19930;-75
2020/12/19 07:53:19;;;;;;;;;;;;;;;-0.45;100.00;101408.31;5090589;28;19931;-75
2020/12/19 07:55:48;;;;;;;;;;;;;;;-0.33;100.00;101401.78;5112067;28;20434;-74
2020/12/19 07:58:15;;;;;;;;;;;;;;;-0.23;100.00;101402.44;5094404;28;20018;-76
2020/12/19 08:00:40;;;;;;;;;;;;;;;-0.16;100.00;101404.03;5092432;28;19924;-76
2020/12/19 08:03:09;;;;;;;;;;;;;;;-0.15;100.00;101392.44;5091517;28;20397;-76
2020/12/19 08:05:35;;;;;;;;;;;;;;;-0.10;100.00;101398.53;5096919;28;20298;-76
2020/12/19 08:08:01;;;;;;;;;;;;;;;-0.09;100.00;101392.28;5111165;28;19928;-77
2020/12/19 08:10:27;;;;;;;;;;;;;;;-0.05;100.00;101393.09;5107862;28;19924;-77
2020/12/19 08:12:53;;;;;;;;;;;;;;;0.01;100.00;101384.91;5094927;28;19987;-77
2020/12/19 08:15:19;;;;;;;;;;;;;;;0.05;100.00;101383.88;5096070;28;19923;-77
2020/12/19 08:17:46;;;;;;;;;;;;;;;0.20;100.00;101382.63;5097762;28;19924;-76
2020/12/19 08:20:13;;;;;;;;;;;;;;;0.40;100.00;101392.75;5111891;28;20400;-76
2020/12/19 08:22:40;;;;;;;;;;;;;;;0.58;100.00;101377.09;5114965;28;19935;-78
2020/12/19 08:25:06;;;;;;;;;;;;;;;0.71;100.00;101367.81;5114750;28;20026;-77
2020/12/19 08:27:41;;;;;;;;;;;;;;;0.82;100.00;101375.50;5115130;28;20022;-78
2020/12/19 08:30:14;;;;;;;;;;;;;;;0.99;100.00;101377.66;5114959;28;20269;-77
2020/12/19 08:32:41;;;;;;;;;;;;;;;1.09;100.00;101381.78;5115025;28;20015;-77
2020/12/19 08:35:07;;;;;;;;;;;;;;;1.28;100.00;101384.78;5114616;28;19966;-77
2020/12/19 08:37:33;;;;;;;;;;;;;;;1.45;100.00;101373.50;5114399;28;19924;-78
2020/12/19 08:40:10;;;;;;;;;;;;;;;1.62;100.00;101374.78;5114494;28;20014;-77
2020/12/19 08:42:36;;;;;;;;;;;;;;;1.64;100.00;101367.53;5114720;28;20019;-78
2020/12/19 08:45:12;;;;;;;;;;;;;;;1.72;100.00;101368.16;5113376;28;20510;-77
2020/12/19 08:47:39;;;;;;;;;;;;;;;1.96;100.00;101368.25;5114408;28;20008;-77
2020/12/19 08:50:05;;;;;;;;;;;;;;;2.06;100.00;101366.09;5114777;28;20022;-77
2020/12/19 08:52:31;;;;;;;;;;;;;;;2.55;100.00;101382.22;5114477;28;19963;-78
2020/12/19 08:54:58;;;;;;;;;;;;;;;2.85;100.00;101391.78;5114151;28;19923;-76
2020/12/19 08:57:27;;;;;;;;;;;;;;;3.00;100.00;101379.56;5114149;28;20266;-76
2020/12/19 08:59:53;;;;;;;;;;;;;;;3.35;100.00;101390.75;5114639;28;19927;-76
2020/12/19 09:02:20;;;;;;;;;;;;;;;3.60;100.00;101378.97;5114217;28;19931;-76
2020/12/19 09:04:49;;;;;;;;;;;;;;;3.80;100.00;101372.75;5114428;28;20414;-76
2020/12/19 09:07:15;;;;;;;;;;;;;;;3.82;100.00;101384.31;5113869;28;20342;-75
2020/12/19 09:09:41;;;;;;;;;;;;;;;4.03;100.00;101381.66;5114083;28;19931;-76
2020/12/19 09:12:07;;;;;;;;;;;;;;;4.18;100.00;101386.38;5113940;28;19931;-76
2020/12/19 09:14:33;;;;;;;;;;;;;;;4.20;100.00;101383.59;5113894;28;20019;-75
2020/12/19 09:16:59;;;;;;;;;;;;;;;3.98;100.00;101373.81;5113865;28;19924;-76
2020/12/19 09:19:25;;;;;;;;;;;;;;;4.26;100.00;101382.44;5114101;28;19924;-76
2020/12/19 09:21:54;;;;;;;;;;;;;;;3.47;100.00;101373.22;5113125;28;19927;-76
2020/12/19 09:24:20;;;;;;;;;;;;;;;3.78;100.00;101385.41;5113665;28;19924;-76
2020/12/19 09:26:46;;;;;;;;;;;;;;;3.50;100.00;101358.81;5113580;28;19930;-76
2020/12/19 09:29:12;;;;;;;;;;;;;;;3.44;100.00;101378.72;5113462;28;19923;-75
2020/12/19 09:31:38;;;;;;;;;;;;;;;3.34;100.00;101363.94;5113763;28;20022;-75
2020/12/19 09:34:04;;;;;;;;;;;;;;;3.04;100.00;101372.28;5113513;28;19924;-75
2020/12/19 09:36:30;;;;;;;;;;;;;;;3.31;100.00;101380.16;5113147;28;19966;-76
2020/12/19 09:38:56;;;;;;;;;;;;;;;3.33;100.00;101362.22;5113450;28;20297;-76
2020/12/19 09:41:21;;;;;;;;;;;;;;;3.30;100.00;101373.94;5113338;28;19958;-76
2020/12/19 09:43:47;;;;;;;;;;;;;;;3.50;100.00;101372.22;5113389;28;20015;-76
2020/12/19 09:46:14;;;;;;;;;;;;;;;3.58;100.00;101359.38;5113086;28;19989;-76
2020/12/19 09:48:40;;;;;;;;;;;;;;;3.33;100.00;101360.38;5113179;28;19945;-73
2020/12/19 09:51:07;;;;;;;;;;;;;;;3.36;100.00;101362.06;5113353;28;19927;-74
2020/12/19 09:53:33;;;;;;;;;;;;;;;3.69;100.00;101356.25;5113227;28;19924;-73
2020/12/19 09:55:59;;;;;;;;;;;;;;;3.99;100.00;101362.09;5111929;28;20300;-76
2020/12/19 09:58:24;;;;;;;;;;;;;;;4.15;100.00;101370.34;5113008;28;19969;-72
2020/12/19 10:00:50;;;;;;;;;;;;;;;3.85;100.00;101351.97;5113219;28;19924;-74
2020/12/19 10:03:17;;;;;;;;;;;;;;;3.94;100.00;101357.88;5112965;28;19927;-74
2020/12/19 10:05:43;;;;;;;;;;;;;;;3.73;100.00;101352.50;5112664;28;19932;-72
2020/12/19 10:08:08;;;;;;;;;;;;;;;3.90;100.00;101348.19;5107859;28;19931;-73
2020/12/19 10:10:34;;;;;;;;;;;;;;;3.96;100.00;101342.56;5112851;28;19935;-73
2020/12/19 10:13:00;;;;;;;;;;;;;;;3.94;100.00;101347.13;5112982;28;19924;-75
2020/12/19 10:15:26;;;;;;;;;;;;;;;4.08;100.00;101350.06;5112777;28;20042;-75
2020/12/19 10:17:52;;;;;;;;;;;;;;;3.97;100.00;101349.69;5112793;28;20420;-75
2020/12/19 10:20:18;;;;;;;;;;;;;;;3.92;100.00;101343.66;5113114;28;19931;-76
2020/12/19 10:22:46;;;;;;;;;;;;;;;3.47;100.00;101356.25;5113180;28;19988;-76
2020/12/19 10:25:12;;;;;;;;;;;;;;;3.10;100.00;101353.28;5110606;28;20038;-76
2020/12/19 10:27:37;;;;;;;;;;;;;;;3.06;100.00;101350.75;5110806;28;20385;-76
2020/12/19 10:30:04;;;;;;;;;;;;;;;3.07;100.00;101347.16;5112523;28;19930;-76
2020/12/19 10:32:29;;;;;;;;;;;;;;;3.36;100.00;101348.66;5112732;27;20010;-76
2020/12/19 10:34:55;;;;;;;;;;;;;;;3.68;100.00;101346.44;5112155;28;20176;-76
2020/12/19 10:37:22;;;;;;;;;;;;;;;3.82;100.00;101340.47;5111961;28;19928;-76
2020/12/19 10:39:49;;;;;;;;;;;;;;;3.67;100.00;101342.88;5112724;28;20402;-76
2020/12/19 10:42:14;;;;;;;;;;;;;;;3.61;100.00;101342.28;5112805;28;19947;-76
2020/12/19 10:44:41;;;;;;;;;;;;;;;3.73;100.00;101341.75;5111663;28;20424;-77
2020/12/19 10:47:06;;;;;;;;;;;;;;;3.77;100.00;101343.34;5111494;28;20463;-77
2020/12/19 10:49:32;;;;;;;;;;;;;;;3.98;100.00;101336.19;5113098;28;19930;-77
2020/12/19 10:52:02;;;;;;;;;;;;;;;4.22;100.00;101344.06;5115604;28;20026;-77
2020/12/19 10:54:28;;;;;;;;;;;;;;;4.10;100.00;101334.78;5113686;28;19931;-77
2020/12/19 10:56:54;;;;;;;;;;;;;;;4.09;100.00;101335.72;5112987;28;19930;-77
2020/12/19 10:59:20;;;;;;;;;;;;;;;4.11;100.00;101336.50;5112574;28;19959;-77
2020/12/19 11:01:46;;;;;;;;;;;;;;;4.21;100.00;101338.78;5106452;28;19930;-77
2020/12/19 11:04:12;;;;;;;;;;;;;;;4.22;100.00;101341.38;5098121;28;20413;-77
2020/12/19 11:06:38;;;;;;;;;;;;;;;4.21;100.00;101334.28;5107746;28;19931;-77
2020/12/19 11:09:04;;;;;;;;;;;;;;;4.25;100.00;101341.28;5106481;28;19923;-76
2020/12/19 11:11:30;;;;;;;;;;;;;;;4.08;100.00;101347.41;5112213;28;19931;-76
2020/12/19 11:13:56;;;;;;;;;;;;;;;3.96;100.00;101340.75;5102072;28;19993;-77
2020/12/19 11:16:22;;;;;;;;;;;;;;;4.00;100.00;101336.13;5111997;28;20014;-77
2020/12/19 11:18:48;;;;;;;;;;;;;;;3.93;100.00;101343.56;5092362;28;19967;-77
2020/12/19 11:21:14;;;;;;;;;;;;;;;4.03;100.00;101344.03;5091582;28;19932;-77
2020/12/19 11:23:40;;;;;;;;;;;;;;;4.09;100.00;101338.41;5107568;28;20386;-77
2020/12/19 11:26:05;;;;;;;;;;;;;;;3.99;100.00;101335.22;5101229;28;19928;-77
2020/12/19 11:28:33;;;;;;;;;;;;;;;3.97;100.00;101331.75;5110522;28;19935;-77
2020/12/19 11:30:59;;;;;;;;;;;;;;;4.11;100.00;101331.13;5109362;28;20420;-77
2020/12/19 11:33:25;;;;;;;;;;;;;;;4.14;100.00;101330.13;5112031;28;20014;-77
2020/12/19 11:35:50;;;;;;;;;;;;;;;4.22;100.00;101327.09;5099840;28;19924;-78
2020/12/19 11:38:16;;;;;;;;;;;;;;;4.63;100.00;101321.63;5091748;28;19928;-77
2020/12/19 11:40:42;;;;;;;;;;;;;;;4.82;100.00;101327.91;5102028;28;19927;-77
2020/12/19 11:43:08;;;;;;;;;;;;;;;4.85;100.00;101316.09;5112400;28;19923;-77
2020/12/19 11:45:35;;;;;;;;;;;;;;;4.85;100.00;101322.38;5103922;28;20370;-76
2020/12/19 11:48:00;;;;;;;;;;;;;;;4.89;100.00;101319.50;5095659;28;19969;-77
2020/12/19 11:50:26;;;;;;;;;;;;;;;4.97;100.00;101314.63;5102386;28;19932;-77
2020/12/19 11:52:52;;;;;;;;;;;;;;;5.23;100.00;101307.13;5111043;28;19925;-76
2020/12/19 11:55:18;;;;;;;;;;;;;;;5.24;100.00;101307.03;5095424;28;19931;-76
2020/12/19 11:57:43;;;;;;;;;;;;;;;5.28;100.00;101307.78;5096831;28;19967;-77
2020/12/19 12:00:09;;;;;;;;;;;;;;;5.19;100.00;101301.00;5115800;28;19924;-77
2020/12/19 12:02:36;;;;;;;;;;;;;;;5.26;100.00;101302.44;5108799;28;20394;-77
2020/12/19 12:05:02;;;;;;;;;;;;;;;5.10;100.00;101282.63;5095965;28;20378;-77
2020/12/19 12:07:28;;;;;;;;;;;;;;;5.07;100.00;101288.16;5099608;28;19932;-77
2020/12/19 12:09:54;;;;;;;;;;;;;;;5.14;100.00;101292.28;5115672;28;19924;-77
2020/12/19 12:12:19;;;;;;;;;;;;;;;5.06;100.00;101281.03;5111937;28;19931;-77
2020/12/19 12:14:45;;;;;;;;;;;;;;;5.01;100.00;101282.13;5095166;28;19927;-77
2020/12/19 12:17:11;;;;;;;;;;;;;;;5.03;100.00;101273.97;5096071;28;19924;-77
2020/12/19 12:19:38;;;;;;;;;;;;;;;4.94;100.00;101271.75;5094928;28;20015;-77
2020/12/19 12:22:03;;;;;;;;;;;;;;;4.92;100.00;101284.38;5101472;28;20019;-77
2020/12/19 12:24:29;;;;;;;;;;;;;;;4.97;100.00;101282.34;5115057;28;20282;-77
2020/12/19 12:26:55;;;;;;;;;;;;;;;5.09;100.00;101283.56;5109642;28;19950;-77